createdAt,value
2018-08-10T00:01:46.628Z,100279.98
2018-08-10T00:04:13.639Z,100280.41
2018-08-10T00:06:40.923Z,100277.09
2018-08-10T00:09:09.610Z,100282.53
2018-08-10T00:11:36.593Z,100284.84
2018-08-10T00:14:03.672Z,100296.84
2018-08-10T00:16:30.640Z,100293.50
2018-08-10T00:18:57.688Z,100298.13
2018-08-10T00:21:25.049Z,100302.66
2018-08-10T00:23:52.121Z,100307.28
2018-08-10T00:26:19.179Z,100312.00
2018-08-10T00:28:46.243Z,100315.88
2018-08-10T00:31:13.231Z,100318.06
2018-08-10T00:33:40.359Z,100330.20
2018-08-10T00:36:07.392Z,100329.28
2018-08-10T00:38:34.382Z,100326.82
2018-08-10T00:41:01.463Z,100337.80
2018-08-10T00:43:28.470Z,100341.26
2018-08-10T00:45:55.532Z,100336.57
2018-08-10T00:48:22.571Z,100343.36
2018-08-10T00:50:49.699Z,100339.77
2018-08-10T00:53:16.784Z,100331.98
2018-08-10T00:55:43.884Z,100340.73
2018-08-10T00:58:10.886Z,100324.20
2018-08-10T01:00:37.904Z,100327.09
2018-08-10T01:03:05.007Z,100322.22
2018-08-10T01:05:32.159Z,100320.72
2018-08-10T01:07:59.227Z,100322.36
2018-08-10T01:10:26.222Z,100332.53
2018-08-10T01:12:53.248Z,100325.31
2018-08-10T01:15:20.267Z,100331.34
2018-08-10T01:17:47.367Z,100334.02
2018-08-10T01:20:18.603Z,100334.09
2018-08-10T01:22:51.341Z,100355.59
2018-08-10T01:25:19.531Z,100343.78
2018-08-10T01:27:52.431Z,100356.59
2018-08-10T01:30:19.426Z,100350.92
2018-08-10T01:32:46.448Z,100364.06
2018-08-10T01:35:13.479Z,100361.88
2018-08-10T01:37:40.503Z,100377.55
2018-08-10T01:40:08.064Z,100378.83
2018-08-10T01:42:35.453Z,100382.24
2018-08-10T01:45:02.520Z,100396.45
2018-08-10T01:47:29.595Z,100398.51
2018-08-10T01:49:56.710Z,100389.32
2018-08-10T01:52:23.888Z,100401.55
2018-08-10T01:54:50.883Z,100405.03
2018-08-10T01:57:17.928Z,100420.70
2018-08-10T01:59:44.915Z,100435.12
2018-08-10T02:02:11.924Z,100426.16
2018-08-10T02:04:39.086Z,100435.05
2018-08-10T02:07:06.094Z,100437.61
2018-08-10T02:09:33.077Z,100444.30
2018-08-10T02:12:00.171Z,100442.20
2018-08-10T02:14:27.228Z,100458.67
2018-08-10T02:16:54.321Z,100428.96
2018-08-10T02:19:21.294Z,100450.79
2018-08-10T02:21:48.317Z,100454.09
2018-08-10T02:24:15.627Z,100460.66
2018-08-10T02:26:42.645Z,100469.31
2018-08-10T02:29:09.823Z,100462.94
2018-08-10T02:31:36.911Z,100463.16
2018-08-10T02:34:03.956Z,100464.77
2018-08-10T02:36:31.068Z,100468.04
2018-08-10T02:38:58.072Z,100470.06
2018-08-10T02:41:25.063Z,100481.64
2018-08-10T02:43:52.048Z,100476.06
2018-08-10T02:46:19.083Z,100471.67
2018-08-10T02:48:46.176Z,100484.47
2018-08-10T02:51:13.226Z,100471.77
2018-08-10T02:53:40.275Z,100493.80
2018-08-10T02:56:07.312Z,100495.41
2018-08-10T02:58:34.312Z,100496.41
2018-08-10T03:01:01.647Z,100493.70
2018-08-10T03:03:28.656Z,100495.33
2018-08-10T03:05:55.635Z,100509.70
2018-08-10T03:08:22.891Z,100515.61
2018-08-10T03:10:49.867Z,100530.58
2018-08-10T03:13:16.933Z,100510.60
2018-08-10T03:15:44.051Z,100518.53
2018-08-10T03:18:11.047Z,100532.45
2018-08-10T03:20:38.055Z,100527.34
2018-08-10T03:23:05.283Z,100532.92
2018-08-10T03:25:32.275Z,100533.86
2018-08-10T03:27:59.249Z,100543.20
2018-08-10T03:30:26.253Z,100549.47
2018-08-10T03:32:53.259Z,100544.45
2018-08-10T03:35:20.259Z,100559.52
2018-08-10T03:37:47.275Z,100553.02
2018-08-10T03:40:15.131Z,100558.98
2018-08-10T03:42:42.159Z,100555.12
2018-08-10T03:45:09.624Z,100566.05
2018-08-10T03:47:36.684Z,100570.37
2018-08-10T03:50:04.929Z,100580.00
2018-08-10T03:52:31.931Z,100570.59
2018-08-10T03:54:58.996Z,100577.19
2018-08-10T03:57:26.019Z,100575.56
2018-08-10T03:59:53.155Z,100575.91
2018-08-10T04:02:20.331Z,100582.59
2018-08-10T04:04:47.324Z,100589.64
2018-08-10T04:07:14.381Z,100596.34
2018-08-10T04:09:41.391Z,100605.14
2018-08-10T04:12:08.455Z,100609.87
2018-08-10T04:14:35.471Z,100608.41
2018-08-10T04:17:02.459Z,100625.37
2018-08-10T04:19:29.464Z,100627.81
2018-08-10T04:21:56.527Z,100640.89
2018-08-10T04:24:23.666Z,100628.09
2018-08-10T04:26:50.696Z,100643.20
2018-08-10T04:29:17.746Z,100650.41
2018-08-10T04:31:44.742Z,100659.95
2018-08-10T04:34:11.748Z,100663.52
2018-08-10T04:36:38.776Z,100657.48
2018-08-10T04:39:08.547Z,100673.41
2018-08-10T04:41:35.535Z,100684.19
2018-08-10T04:44:02.547Z,100693.14
2018-08-10T04:46:29.539Z,100712.08
2018-08-10T04:48:56.508Z,100705.18
2018-08-10T04:51:23.683Z,100702.70
2018-08-10T04:53:50.697Z,100733.98
2018-08-10T04:56:17.814Z,100727.98
2018-08-10T04:58:45.028Z,100737.84
2018-08-10T05:01:12.015Z,100754.67
2018-08-10T05:03:39.022Z,100760.42
2018-08-10T05:06:06.039Z,100782.23
2018-08-10T05:08:33.078Z,100781.03
2018-08-10T05:11:00.126Z,100785.84
2018-08-10T05:13:27.164Z,100792.64
2018-08-10T05:15:54.188Z,100792.86
2018-08-10T05:18:22.675Z,100799.70
2018-08-10T05:20:49.739Z,100804.47
2018-08-10T05:23:23.804Z,100809.45
2018-08-10T05:25:50.930Z,100818.47
2018-08-10T05:28:17.989Z,100823.69
2018-08-10T05:30:45.012Z,100817.23
2018-08-10T05:33:12.410Z,100825.77
2018-08-10T05:35:39.490Z,100830.78
2018-08-10T05:38:06.867Z,100837.39
2018-08-10T05:40:33.982Z,100854.36
2018-08-10T05:43:01.032Z,100849.17
2018-08-10T05:45:28.079Z,100862.62
2018-08-10T05:47:55.071Z,100860.02
2018-08-10T05:50:22.083Z,100869.38
2018-08-10T05:52:49.391Z,100880.56
2018-08-10T05:55:16.711Z,100875.48
2018-08-10T05:57:43.752Z,100882.78
2018-08-10T06:00:10.844Z,100888.95
2018-08-10T06:02:37.978Z,100883.55
2018-08-10T06:05:05.643Z,100896.11
2018-08-10T06:07:32.728Z,100894.19
2018-08-10T06:09:59.995Z,100914.87
2018-08-10T06:12:27.215Z,100923.52
2018-08-10T06:14:54.212Z,100915.95
2018-08-10T06:17:21.218Z,100927.95
2018-08-10T06:19:48.664Z,100925.03
2018-08-10T06:22:15.660Z,100926.66
2018-08-10T06:24:42.678Z,100932.36
2018-08-10T06:27:09.782Z,100937.27
2018-08-10T06:29:36.807Z,100944.89
2018-08-10T06:32:03.827Z,100951.72
2018-08-10T06:34:31.063Z,100949.14
2018-08-10T06:36:58.120Z,100963.20
2018-08-10T06:39:25.373Z,100968.64
2018-08-10T06:41:52.447Z,100970.06
2018-08-10T06:44:19.941Z,100955.34
2018-08-10T06:46:47.013Z,100977.61
2018-08-10T06:49:14.350Z,100978.50
2018-08-10T06:51:41.335Z,100996.91
2018-08-10T06:54:08.348Z,100994.86
2018-08-10T06:56:35.363Z,100998.30
2018-08-10T06:59:02.392Z,100991.61
2018-08-10T07:01:29.417Z,100994.09
2018-08-10T07:03:56.523Z,101006.27
2018-08-10T07:06:23.508Z,101007.95
2018-08-10T07:08:50.984Z,101015.98
2018-08-10T07:11:18.364Z,101020.20
2018-08-10T07:13:45.726Z,101021.08
2018-08-10T07:16:12.724Z,101037.82
2018-08-10T07:18:39.875Z,101039.79
2018-08-10T07:21:06.910Z,101053.87
2018-08-10T07:23:33.885Z,101052.48
2018-08-10T07:26:00.963Z,101051.95
2018-08-10T07:28:28.210Z,101061.90
2018-08-10T07:30:55.200Z,101066.16
2018-08-10T07:33:22.423Z,101079.59
2018-08-10T07:35:49.519Z,101080.13
2018-08-10T07:38:16.706Z,101089.02
2018-08-10T07:40:44.148Z,101085.77
2018-08-10T07:43:11.323Z,101101.69
2018-08-10T07:45:38.591Z,101087.65
2018-08-10T07:48:05.675Z,101107.25
2018-08-10T07:50:32.799Z,101107.25
2018-08-10T07:52:59.937Z,101111.08
2018-08-10T07:55:26.967Z,101109.80
2018-08-10T07:57:54.156Z,101111.37
2018-08-10T08:00:21.205Z,101121.48
2018-08-10T08:02:48.660Z,101124.89
2018-08-10T08:05:15.995Z,101125.63
2018-08-10T08:07:43.091Z,101125.73
2018-08-10T08:10:10.129Z,101136.57
2018-08-10T08:12:37.179Z,101134.05
2018-08-10T08:15:04.582Z,101143.59
2018-08-10T08:17:31.591Z,101147.16
2018-08-10T08:19:58.709Z,101152.81
2018-08-10T08:22:25.715Z,101160.39
2018-08-10T08:24:52.708Z,101153.23
2018-08-10T08:27:20.027Z,101156.46
2018-08-10T08:29:47.103Z,101164.22
2018-08-10T08:32:14.155Z,101169.65
2018-08-10T08:34:41.268Z,101180.08
2018-08-10T08:37:08.829Z,101183.97
2018-08-10T08:40:46.757Z,101175.77
2018-08-10T08:43:14.482Z,101184.87
2018-08-10T08:45:46.994Z,101188.98
2018-08-10T08:48:13.825Z,101195.12
2018-08-10T08:50:42.175Z,101201.41
2018-08-10T08:53:09.223Z,101212.55
2018-08-10T08:55:38.659Z,101209.97
2018-08-10T08:58:05.983Z,101222.95
2018-08-10T09:00:33.027Z,101224.13
2018-08-10T09:03:00.487Z,101221.02
2018-08-10T09:05:27.607Z,101232.04
2018-08-10T09:07:54.670Z,101221.30
2018-08-10T09:10:21.823Z,101219.49
2018-08-10T09:12:48.835Z,101231.61
2018-08-10T09:15:17.680Z,101227.34
2018-08-10T09:17:44.741Z,101223.90
2018-08-10T09:20:11.884Z,101241.92
2018-08-10T09:22:38.979Z,101254.24
2018-08-10T09:25:07.803Z,101248.16
2018-08-10T09:27:34.852Z,101258.45
2018-08-10T09:30:01.843Z,101256.52
2018-08-10T09:32:28.857Z,101263.59
2018-08-10T09:34:55.859Z,101267.23
2018-08-10T09:37:22.909Z,101256.38
2018-08-10T09:39:50.016Z,101269.83
2018-08-10T09:42:17.112Z,101272.29
2018-08-10T09:44:44.067Z,101275.34
2018-08-10T09:47:11.244Z,101286.31
2018-08-10T09:49:41.091Z,101275.98
2018-08-10T09:52:08.128Z,101293.54
2018-08-10T09:54:47.002Z,101290.62
2018-08-10T09:57:14.534Z,101302.34
2018-08-10T09:59:41.553Z,101290.76
2018-08-10T10:02:13.415Z,101299.57
2018-08-10T10:04:40.411Z,101298.96
2018-08-10T10:07:07.469Z,101302.34
2018-08-10T10:09:35.475Z,101307.89
2018-08-10T10:12:02.607Z,101307.21
2018-08-10T10:14:29.631Z,101305.82
2018-08-10T10:16:56.681Z,101312.59
2018-08-10T10:19:23.695Z,101317.58
2018-08-10T10:21:50.709Z,101313.69
2018-08-10T10:24:17.830Z,101321.45
2018-08-10T10:26:44.897Z,101320.88
2018-08-10T10:29:11.964Z,101311.56
2018-08-10T10:31:38.995Z,101318.82
2018-08-10T10:34:06.015Z,101324.69
2018-08-10T10:36:33.035Z,101327.05
2018-08-10T10:39:00.335Z,101318.44
2018-08-10T10:41:27.362Z,101317.50
2018-08-10T10:43:54.335Z,101329.88
2018-08-10T10:46:21.420Z,101334.17
2018-08-10T10:48:48.428Z,101338.52
2018-08-10T10:51:15.523Z,101342.12
2018-08-10T10:53:42.907Z,101342.50
2018-08-10T10:56:09.978Z,101351.31
2018-08-10T10:58:36.928Z,101357.81
2018-08-10T11:01:04.148Z,101361.27
2018-08-10T11:03:31.144Z,101356.47
2018-08-10T11:05:58.177Z,101349.87
2018-08-10T11:08:25.236Z,101352.16
2018-08-10T11:10:52.229Z,101356.77
2018-08-10T11:13:26.522Z,101357.88
2018-08-10T11:15:53.511Z,101360.47
2018-08-10T11:18:20.511Z,101359.80
2018-08-10T11:20:48.107Z,101357.22
2018-08-10T11:23:15.105Z,101363.28
2018-08-10T11:25:42.220Z,101365.78
2018-08-10T11:28:09.142Z,101362.30
2018-08-10T11:30:36.145Z,101374.02
2018-08-10T11:33:03.177Z,101363.89
2018-08-10T11:35:30.199Z,101353.55
2018-08-10T11:37:57.243Z,101352.43
2018-08-10T11:40:24.293Z,101355.86
2018-08-10T11:42:51.340Z,101357.72
2018-08-10T11:45:18.380Z,101349.44
2018-08-10T11:47:45.407Z,101350.22
2018-08-10T11:50:12.504Z,101352.58
2018-08-10T11:52:39.526Z,101352.66
2018-08-10T11:55:08.165Z,101356.01
2018-08-10T11:57:35.139Z,101357.27
2018-08-10T12:00:02.350Z,101361.27
2018-08-10T12:02:29.324Z,101352.23
2018-08-10T12:04:56.419Z,101357.93
2018-08-10T12:07:23.388Z,101357.48
2018-08-10T12:09:50.449Z,101364.47
2018-08-10T12:12:17.510Z,101365.13
2018-08-10T12:14:44.505Z,101374.12
2018-08-10T12:17:11.511Z,101371.10
2018-08-10T12:19:38.807Z,101357.42
2018-08-10T12:22:05.880Z,101375.07
2018-08-10T12:24:33.108Z,101366.03
2018-08-10T12:27:00.167Z,101372.25
2018-08-10T12:29:27.483Z,101363.52
2018-08-10T12:31:54.478Z,101375.33
2018-08-10T12:34:21.524Z,101374.98
2018-08-10T12:36:48.560Z,101378.25
2018-08-10T12:39:15.715Z,101375.07
2018-08-10T12:41:42.832Z,101378.39
2018-08-10T12:44:10.051Z,101368.20
2018-08-10T12:46:37.344Z,101365.20
2018-08-10T12:49:04.327Z,101363.23
2018-08-10T12:51:31.341Z,101372.87
2018-08-10T12:53:58.674Z,101359.83
2018-08-10T12:56:25.809Z,101367.27
2018-08-10T12:58:52.835Z,101367.63
2018-08-10T13:01:19.847Z,101360.56
2018-08-10T13:03:46.850Z,101346.70
2018-08-10T13:06:13.839Z,101357.95
2018-08-10T13:08:40.856Z,101352.26
2018-08-10T13:11:07.958Z,101350.27
2018-08-10T13:13:34.951Z,101359.94
2018-08-10T13:16:01.968Z,101357.08
2018-08-10T13:18:29.005Z,101358.73
2018-08-10T13:20:56.041Z,101351.09
2018-08-10T13:23:23.072Z,101359.29
2018-08-10T13:25:50.135Z,101358.00
2018-08-10T13:28:17.141Z,101349.32
2018-08-10T13:30:44.183Z,101342.63
2018-08-10T13:33:11.321Z,101339.94
2018-08-10T13:35:38.333Z,101340.02
2018-08-10T13:38:06.268Z,101345.31
2018-08-10T13:40:33.340Z,101345.58
2018-08-10T13:43:00.355Z,101336.90
2018-08-10T13:45:27.431Z,101341.65
2018-08-10T13:47:54.563Z,101356.39
2018-08-10T13:50:21.658Z,101356.23
2018-08-10T13:52:48.674Z,101350.33
2018-08-10T13:55:17.294Z,101343.29
2018-08-10T13:57:44.876Z,101352.91
2018-08-10T14:00:17.744Z,101354.19
2018-08-10T14:02:44.783Z,101341.56
2018-08-10T14:05:12.140Z,101357.09
2018-08-10T14:07:40.230Z,101348.68
2018-08-10T14:10:07.287Z,101353.54
2018-08-10T14:12:34.331Z,101362.77
2018-08-10T14:15:01.319Z,101359.48
2018-08-10T14:17:28.328Z,101360.09
2018-08-10T14:19:55.364Z,101367.09
2018-08-10T14:22:22.388Z,101372.52
2018-08-10T14:24:49.478Z,101379.23
2018-08-10T14:27:16.788Z,101376.39
2018-08-10T14:29:43.784Z,101389.56
2018-08-10T14:32:10.785Z,101393.83
2018-08-10T14:34:37.799Z,101392.13
2018-08-10T14:37:04.815Z,101388.09
2018-08-10T14:39:31.800Z,101392.33
2018-08-10T14:41:58.888Z,101389.54
2018-08-10T14:44:25.870Z,101387.01
2018-08-10T14:46:52.993Z,101390.24
2018-08-10T14:49:19.956Z,101390.02
2018-08-10T14:51:46.964Z,101382.31
2018-08-10T14:54:13.975Z,101379.76
2018-08-10T14:56:40.967Z,101375.13
2018-08-10T14:59:08.035Z,101373.63
2018-08-10T15:01:35.754Z,101371.08
2018-08-10T15:04:02.803Z,101371.27
2018-08-10T15:06:29.827Z,101375.35
2018-08-10T15:08:56.896Z,101379.08
2018-08-10T15:11:23.895Z,101380.55
2018-08-10T15:13:50.876Z,101374.71
2018-08-10T15:16:18.316Z,101379.56
2018-08-10T15:18:45.532Z,101377.66
2018-08-10T15:21:12.909Z,101377.13
2018-08-10T15:23:39.920Z,101376.73
2018-08-10T15:26:07.319Z,101389.72
2018-08-10T15:28:34.483Z,101414.23
2018-08-10T15:31:01.593Z,101407.11
2018-08-10T15:33:29.408Z,101405.82
2018-08-10T15:35:56.480Z,101410.09
2018-08-10T15:38:24.021Z,101412.70
2018-08-10T15:40:50.964Z,101412.27
2018-08-10T15:43:18.043Z,101414.34
2018-08-10T15:45:45.059Z,101418.81
2018-08-10T15:48:12.366Z,101414.66
2018-08-10T15:50:39.683Z,101421.70
2018-08-10T15:53:07.297Z,101423.17
2018-08-10T15:55:34.357Z,101416.23
2018-08-10T15:58:01.845Z,101413.98
2018-08-10T16:00:28.891Z,101416.72
2018-08-10T16:02:56.244Z,101417.42
2018-08-10T16:05:23.437Z,101415.80
2018-08-10T16:07:50.439Z,101413.25
2018-08-10T16:10:17.483Z,101410.47
2018-08-10T16:12:45.184Z,101414.41
2018-08-10T16:15:16.492Z,101405.36
2018-08-10T16:17:43.495Z,101402.81
2018-08-10T16:20:12.472Z,101395.02
2018-08-10T16:22:39.477Z,101398.38
2018-08-10T16:25:07.951Z,101399.83
2018-08-10T16:27:35.718Z,101403.89
2018-08-10T16:30:02.847Z,101397.79
2018-08-10T16:32:30.024Z,101397.30
2018-08-10T16:34:57.111Z,101394.16
2018-08-10T16:37:24.144Z,101394.38
2018-08-10T16:39:51.500Z,101393.34
2018-08-10T16:42:18.667Z,101393.98
2018-08-10T16:44:45.747Z,101393.67
2018-08-10T16:47:12.782Z,101391.01
2018-08-10T16:49:39.855Z,101386.73
2018-08-10T16:52:06.913Z,101385.80
2018-08-10T16:54:34.191Z,101387.90
2018-08-10T16:57:01.481Z,101392.50
2018-08-10T16:59:28.533Z,101392.96
2018-08-10T17:01:55.547Z,101399.19
2018-08-10T17:04:22.991Z,101396.64
2018-08-10T17:06:49.988Z,101390.86
2018-08-10T17:09:16.964Z,101397.64
2018-08-10T17:11:44.383Z,101390.67
2018-08-10T17:14:11.507Z,101399.58
2018-08-10T17:16:39.004Z,101399.58
2018-08-10T17:19:06.155Z,101406.92
2018-08-10T17:25:12.938Z,101402.10
2018-08-10T17:27:47.471Z,101392.52
2018-08-10T17:30:16.497Z,101393.52
2018-08-10T17:32:43.884Z,101398.69
2018-08-10T17:35:12.441Z,101391.83
2018-08-10T17:37:40.186Z,101386.33
2018-08-10T17:40:08.049Z,101383.25
2018-08-10T17:42:35.200Z,101387.27
2018-08-10T17:45:33.471Z,101383.09
2018-08-10T17:48:00.464Z,101379.55
2018-08-10T17:50:27.443Z,101391.34
2018-08-10T17:52:54.511Z,101389.87
2018-08-10T17:55:22.936Z,101390.08
2018-08-10T17:57:50.052Z,101384.78
2018-08-10T18:00:20.362Z,101381.53
2018-08-10T18:02:48.243Z,101378.05
2018-08-10T18:05:17.247Z,101374.91
2018-08-10T18:07:44.983Z,101377.70
2018-08-10T18:10:12.979Z,101375.33
2018-08-10T18:12:40.860Z,101373.03
2018-08-10T18:15:10.428Z,101384.00
2018-08-10T18:17:38.707Z,101384.66
2018-08-10T18:20:08.207Z,101382.23
2018-08-10T18:22:35.336Z,101384.08
2018-08-10T18:25:02.759Z,101381.75
2018-08-10T18:27:29.859Z,101382.85
2018-08-10T18:29:56.815Z,101386.27
2018-08-10T18:32:23.840Z,101387.98
2018-08-10T18:34:50.835Z,101389.70
2018-08-10T18:37:17.958Z,101394.78
2018-08-10T18:39:44.959Z,101392.41
2018-08-10T18:42:12.636Z,101387.27
2018-08-10T18:44:39.844Z,101389.00
2018-08-10T18:47:06.901Z,101391.22
2018-08-10T18:49:33.986Z,101390.95
2018-08-10T18:52:01.032Z,101390.08
2018-08-10T18:54:28.753Z,101378.86
2018-08-10T18:56:55.848Z,101375.00
2018-08-10T18:59:22.927Z,101379.20
2018-08-10T19:01:50.001Z,101378.41
2018-08-10T19:04:17.207Z,101377.69
2018-08-10T19:06:45.280Z,101374.48
2018-08-10T19:09:12.504Z,101377.75
2018-08-10T19:11:39.725Z,101377.70
2018-08-10T19:14:06.831Z,101384.72
2018-08-10T19:16:34.439Z,101380.97
2018-08-10T19:19:01.535Z,101384.38
2018-08-10T19:21:28.883Z,101383.30
2018-08-10T19:23:55.984Z,101387.64
2018-08-10T19:26:23.095Z,101389.27
2018-08-10T19:36:36.675Z,101381.94
2018-08-10T19:42:37.259Z,101379.58
2018-08-10T19:52:13.048Z,101375.59
2018-08-10T19:54:40.128Z,101374.46
2018-08-10T19:57:07.143Z,101376.08
2018-08-10T19:59:34.204Z,101370.20
2018-08-10T20:02:01.290Z,101370.39
2018-08-10T20:04:28.984Z,101372.50
2018-08-10T20:06:56.296Z,101370.33
2018-08-10T20:09:23.351Z,101363.42
2018-08-10T20:11:50.435Z,101363.87
2018-08-10T20:14:17.572Z,101354.61
2018-08-10T20:16:44.576Z,101355.11
2018-08-10T20:19:11.605Z,101355.11
2018-08-10T20:21:39.198Z,101353.38
2018-08-10T20:24:06.299Z,101358.79
2018-08-10T20:26:33.339Z,101358.20
2018-08-10T20:29:00.632Z,101350.62
2018-08-10T20:31:28.509Z,101357.61
2018-08-10T20:33:55.876Z,101358.97
2018-08-10T20:36:22.999Z,101353.78
2018-08-10T20:38:50.038Z,101348.86
2018-08-10T20:41:17.276Z,101343.70
2018-08-10T20:43:45.097Z,101346.95
2018-08-10T20:46:12.540Z,101336.97
2018-08-10T20:48:39.600Z,101333.39
2018-08-10T20:51:06.992Z,101338.36
2018-08-10T20:53:34.047Z,101336.54
2018-08-10T20:56:01.105Z,101338.80
2018-08-10T20:58:28.652Z,101331.78
2018-08-10T21:00:55.915Z,101334.25
2018-08-10T21:03:22.938Z,101330.82
2018-08-10T21:05:50.233Z,101325.17
2018-08-10T21:08:17.517Z,101329.55
2018-08-10T21:10:44.886Z,101323.78
2018-08-10T21:13:12.291Z,101324.58
2018-08-10T21:15:39.501Z,101320.30
2018-08-10T21:18:06.532Z,101317.11
2018-08-10T21:20:33.683Z,101313.95
2018-08-10T21:23:00.691Z,101314.30
2018-08-10T21:25:27.779Z,101304.94
2018-08-10T21:27:55.209Z,101309.91
2018-08-10T21:30:22.279Z,101305.87
2018-08-10T21:32:49.346Z,101302.84
2018-08-10T21:35:16.477Z,101305.25
2018-08-10T21:37:44.294Z,101300.46
2018-08-10T21:40:11.905Z,101301.08
2018-08-10T21:42:39.792Z,101297.14
2018-08-10T21:45:07.155Z,101297.19
2018-08-10T21:47:34.300Z,101292.61
2018-08-10T21:50:01.610Z,101295.14
2018-08-10T21:52:28.956Z,101299.59
2018-08-10T21:54:56.026Z,101288.51
2018-08-10T21:57:23.028Z,101290.39
2018-08-10T21:59:50.048Z,101285.66
2018-08-10T22:02:17.713Z,101285.69
2018-08-10T22:04:44.768Z,101289.89
2018-08-10T22:07:11.794Z,101292.02
2018-08-10T22:09:39.837Z,101288.45
2018-08-10T22:12:06.886Z,101291.08
2018-08-10T22:14:39.728Z,101290.66
2018-08-10T22:17:12.423Z,101284.72
2018-08-10T22:19:39.572Z,101285.06
2018-08-10T22:22:06.787Z,101284.09
2018-08-10T22:24:33.981Z,101277.76
2018-08-10T22:27:01.045Z,101279.58
2018-08-10T22:29:28.121Z,101277.16
2018-08-10T22:31:55.177Z,101276.69
2018-08-10T22:34:22.176Z,101278.58
2018-08-10T22:36:49.220Z,101274.44
2018-08-10T22:39:16.264Z,101269.06
2018-08-10T22:41:43.308Z,101266.06
2018-08-10T22:44:10.365Z,101269.61
2018-08-10T22:46:37.415Z,101261.78
2018-08-10T22:49:04.507Z,101267.95
2018-08-10T22:51:31.603Z,101261.32
2018-08-10T22:53:58.667Z,101251.53
2018-08-10T22:56:25.734Z,101254.20
2018-08-10T22:58:52.779Z,101257.01
2018-08-10T23:01:20.189Z,101247.70
2018-08-10T23:03:47.342Z,101243.14
2018-08-10T23:06:14.476Z,101240.84
2018-08-10T23:08:41.631Z,101236.64
2018-08-10T23:11:08.575Z,101231.19
2018-08-10T23:13:35.655Z,101229.51
2018-08-10T23:16:02.774Z,101226.70
2018-08-10T23:18:29.977Z,101219.27
2018-08-10T23:20:57.025Z,101221.39
2018-08-10T23:23:24.085Z,101209.55
2018-08-10T23:25:51.105Z,101211.45
2018-08-10T23:28:18.147Z,101210.09
2018-08-10T23:30:45.203Z,101208.92
2018-08-10T23:33:12.324Z,101204.25
2018-08-10T23:35:39.378Z,101198.38
2018-08-10T23:38:06.443Z,101201.25
2018-08-10T23:40:33.558Z,101191.78
2018-08-10T23:43:00.641Z,101184.51
2018-08-10T23:45:27.742Z,101184.65
2018-08-10T23:47:54.808Z,101178.33
2018-08-10T23:50:21.879Z,101172.88
2018-08-10T23:52:48.926Z,101166.09
2018-08-10T23:55:17.559Z,101163.17
2018-08-10T23:57:44.644Z,101156.04
